sensor_id;sensor_type;location;lat;lon;timestamp;pressure;altitude;pressure_sealevel;temperature;humidity
79028;BME280;68427;48.476;19.102;2023-07-08T00:01:15;98154.28;;;12.68;77.88
79028;BME280;68427;48.476;19.102;2023-07-08T00:03:41;98153.25;;;12.62;78.22
79028;BME280;68427;48.476;19.102;2023-07-08T00:06:13;98148.72;;;12.56;77.95
79028;BME280;68427;48.476;19.102;2023-07-08T00:08:39;98152.13;;;12.50;77.88
79028;BME280;68427;48.476;19.102;2023-07-08T00:11:09;98157.16;;;12.45;78.31
79028;BME280;68427;48.476;19.102;2023-07-08T00:13:35;98159.53;;;12.40;78.22
79028;BME280;68427;48.476;19.102;2023-07-08T00:16:00;98159.09;;;12.36;77.94
79028;BME280;68427;48.476;19.102;2023-07-08T00:18:27;98154.59;;;12.30;78.53
79028;BME280;68427;48.476;19.102;2023-07-08T00:20:53;98160.47;;;12.32;78.46
79028;BME280;68427;48.476;19.102;2023-07-08T00:23:19;98154.84;;;12.35;77.87
79028;BME280;68427;48.476;19.102;2023-07-08T00:25:47;98154.78;;;12.28;78.08
79028;BME280;68427;48.476;19.102;2023-07-08T00:28:17;98153.72;;;12.23;78.05
79028;BME280;68427;48.476;19.102;2023-07-08T00:30:43;98155.94;;;12.19;78.18
79028;BME280;68427;48.476;19.102;2023-07-08T00:33:09;98158.66;;;12.11;78.51
79028;BME280;68427;48.476;19.102;2023-07-08T00:35:39;98152.34;;;12.05;78.74
79028;BME280;68427;48.476;19.102;2023-07-08T00:38:10;98153.63;;;12.09;78.61
79028;BME280;68427;48.476;19.102;2023-07-08T00:40:48;98152.19;;;12.07;78.36
79028;BME280;68427;48.476;19.102;2023-07-08T00:43:15;98151.38;;;12.06;78.06
79028;BME280;68427;48.476;19.102;2023-07-08T00:45:44;98157.44;;;12.07;78.46
79028;BME280;68427;48.476;19.102;2023-07-08T00:48:28;98157.56;;;11.99;78.92
79028;BME280;68427;48.476;19.102;2023-07-08T00:50:56;98152.41;;;11.91;79.12
79028;BME280;68427;48.476;19.102;2023-07-08T00:53:24;98148.34;;;11.88;79.23
79028;BME280;68427;48.476;19.102;2023-07-08T00:55:51;98144.63;;;11.82;79.68
79028;BME280;68427;48.476;19.102;2023-07-08T00:58:19;98147.19;;;11.76;79.22
79028;BME280;68427;48.476;19.102;2023-07-08T01:00:46;98150.19;;;11.73;79.56
79028;BME280;68427;48.476;19.102;2023-07-08T01:03:15;98154.00;;;11.70;79.78
79028;BME280;68427;48.476;19.102;2023-07-08T01:05:43;98152.38;;;11.69;79.56
79028;BME280;68427;48.476;19.102;2023-07-08T01:08:11;98159.63;;;11.67;79.23
79028;BME280;68427;48.476;19.102;2023-07-08T01:10:39;98157.53;;;11.62;79.35
79028;BME280;68427;48.476;19.102;2023-07-08T01:13:09;98155.66;;;11.56;79.80
79028;BME280;68427;48.476;19.102;2023-07-08T01:15:41;98149.31;;;11.51;79.69
79028;BME280;68427;48.476;19.102;2023-07-08T01:18:08;98145.25;;;11.48;80.63
79028;BME280;68427;48.476;19.102;2023-07-08T01:20:34;98146.09;;;11.49;79.75
79028;BME280;68427;48.476;19.102;2023-07-08T01:23:01;98151.78;;;11.52;80.22
79028;BME280;68427;48.476;19.102;2023-07-08T01:25:27;98149.78;;;11.54;79.89
79028;BME280;68427;48.476;19.102;2023-07-08T01:27:55;98149.97;;;11.53;80.22
79028;BME280;68427;48.476;19.102;2023-07-08T01:30:22;98152.97;;;11.50;79.64
79028;BME280;68427;48.476;19.102;2023-07-08T01:32:50;98151.06;;;11.43;80.15
79028;BME280;68427;48.476;19.102;2023-07-08T01:35:17;98144.38;;;11.41;80.42
79028;BME280;68427;48.476;19.102;2023-07-08T01:37:47;98151.06;;;11.43;80.21
79028;BME280;68427;48.476;19.102;2023-07-08T01:40:25;98150.25;;;11.43;80.11
79028;BME280;68427;48.476;19.102;2023-07-08T01:42:51;98149.00;;;11.39;80.29
79028;BME280;68427;48.476;19.102;2023-07-08T01:45:19;98152.19;;;11.34;81.01
79028;BME280;68427;48.476;19.102;2023-07-08T01:47:50;98154.34;;;11.31;80.57
79028;BME280;68427;48.476;19.102;2023-07-08T01:50:18;98146.22;;;11.25;80.12
79028;BME280;68427;48.476;19.102;2023-07-08T01:52:46;98150.38;;;11.35;80.19
79028;BME280;68427;48.476;19.102;2023-07-08T01:55:12;98155.44;;;11.36;79.84
79028;BME280;68427;48.476;19.102;2023-07-08T01:57:39;98148.66;;;11.27;79.67
79028;BME280;68427;48.476;19.102;2023-07-08T02:00:06;98145.59;;;11.23;80.35
79028;BME280;68427;48.476;19.102;2023-07-08T02:02:32;98146.75;;;11.21;80.59
79028;BME280;68427;48.476;19.102;2023-07-08T02:04:57;98147.50;;;11.15;81.15
79028;BME280;68427;48.476;19.102;2023-07-08T02:07:23;98147.66;;;11.13;80.57
79028;BME280;68427;48.476;19.102;2023-07-08T02:09:49;98146.84;;;11.13;80.86
79028;BME280;68427;48.476;19.102;2023-07-08T02:12:14;98148.50;;;11.14;80.18
79028;BME280;68427;48.476;19.102;2023-07-08T02:14:42;98148.50;;;11.14;79.80
79028;BME280;68427;48.476;19.102;2023-07-08T02:17:07;98151.72;;;11.16;80.27
79028;BME280;68427;48.476;19.102;2023-07-08T02:19:33;98151.13;;;11.14;79.85
79028;BME280;68427;48.476;19.102;2023-07-08T02:21:58;98151.38;;;11.04;79.66
79028;BME280;68427;48.476;19.102;2023-07-08T02:24:25;98161.34;;;10.94;81.16
79028;BME280;68427;48.476;19.102;2023-07-08T02:26:51;98161.22;;;10.87;82.30
79028;BME280;68427;48.476;19.102;2023-07-08T02:29:17;98152.09;;;10.83;82.48
79028;BME280;68427;48.476;19.102;2023-07-08T02:31:44;98154.53;;;10.85;82.18
79028;BME280;68427;48.476;19.102;2023-07-08T02:34:09;98154.97;;;10.88;81.31
79028;BME280;68427;48.476;19.102;2023-07-08T02:36:35;98157.34;;;10.83;81.12
79028;BME280;68427;48.476;19.102;2023-07-08T02:39:02;98159.50;;;10.79;81.99
79028;BME280;68427;48.476;19.102;2023-07-08T02:41:28;98167.38;;;10.79;81.65
79028;BME280;68427;48.476;19.102;2023-07-08T02:43:53;98169.81;;;10.81;80.94
79028;BME280;68427;48.476;19.102;2023-07-08T02:46:19;98161.97;;;10.81;81.49
79028;BME280;68427;48.476;19.102;2023-07-08T02:48:46;98158.06;;;10.77;81.16
79028;BME280;68427;48.476;19.102;2023-07-08T02:51:12;98155.53;;;10.69;80.83
79028;BME280;68427;48.476;19.102;2023-07-08T02:53:37;98157.22;;;10.62;81.94
79028;BME280;68427;48.476;19.102;2023-07-08T02:56:03;98160.22;;;10.58;81.84
79028;BME280;68427;48.476;19.102;2023-07-08T02:58:29;98165.78;;;10.55;82.14
79028;BME280;68427;48.476;19.102;2023-07-08T03:00:56;98173.03;;;10.53;82.06
79028;BME280;68427;48.476;19.102;2023-07-08T03:03:26;98175.81;;;10.52;82.06
79028;BME280;68427;48.476;19.102;2023-07-08T03:05:57;98171.91;;;10.48;82.36
79028;BME280;68427;48.476;19.102;2023-07-08T03:08:24;98179.78;;;10.48;83.19
79028;BME280;68427;48.476;19.102;2023-07-08T03:10:55;98178.81;;;10.49;82.25
79028;BME280;68427;48.476;19.102;2023-07-08T03:13:21;98181.41;;;10.49;82.81
79028;BME280;68427;48.476;19.102;2023-07-08T03:15:46;98173.72;;;10.47;82.37
79028;BME280;68427;48.476;19.102;2023-07-08T03:18:12;98176.19;;;10.49;82.03
79028;BME280;68427;48.476;19.102;2023-07-08T03:20:39;98178.44;;;10.52;82.16
79028;BME280;68427;48.476;19.102;2023-07-08T03:23:06;98175.81;;;10.52;82.09
79028;BME280;68427;48.476;19.102;2023-07-08T03:25:32;98180.06;;;10.53;81.89
79028;BME280;68427;48.476;19.102;2023-07-08T03:27:57;98179.25;;;10.52;82.88
79028;BME280;68427;48.476;19.102;2023-07-08T03:30:23;98177.28;;;10.54;82.30
79028;BME280;68427;48.476;19.102;2023-07-08T03:32:49;98178.88;;;10.55;82.61
79028;BME280;68427;48.476;19.102;2023-07-08T03:35:15;98184.13;;;10.55;82.95
79028;BME280;68427;48.476;19.102;2023-07-08T03:37:41;98173.19;;;10.52;82.39
79028;BME280;68427;48.476;19.102;2023-07-08T03:40:10;98180.06;;;10.53;82.59
79028;BME280;68427;48.476;19.102;2023-07-08T03:42:36;98183.84;;;10.50;82.44
79028;BME280;68427;48.476;19.102;2023-07-08T03:45:01;98186.94;;;10.54;82.34
79028;BME280;68427;48.476;19.102;2023-07-08T03:47:27;98185.13;;;10.54;82.68
79028;BME280;68427;48.476;19.102;2023-07-08T03:49:53;98178.28;;;10.53;83.14
79028;BME280;68427;48.476;19.102;2023-07-08T03:52:18;98170.34;;;10.62;83.28
79028;BME280;68427;48.476;19.102;2023-07-08T03:54:44;98176.81;;;10.66;82.58
79028;BME280;68427;48.476;19.102;2023-07-08T03:57:11;98176.28;;;10.70;82.54
79028;BME280;68427;48.476;19.102;2023-07-08T03:59:37;98181.47;;;10.78;82.20
79028;BME280;68427;48.476;19.102;2023-07-08T04:02:03;98182.03;;;10.89;82.83
79028;BME280;68427;48.476;19.102;2023-07-08T04:04:29;98180.22;;;10.89;82.25
79028;BME280;68427;48.476;19.102;2023-07-08T04:06:55;98185.38;;;10.97;82.07
79028;BME280;68427;48.476;19.102;2023-07-08T04:09:20;98185.19;;;10.99;82.50
79028;BME280;68427;48.476;19.102;2023-07-08T04:11:46;98190.06;;;11.02;83.17
79028;BME280;68427;48.476;19.102;2023-07-08T04:14:13;98177.78;;;11.02;84.11
79028;BME280;68427;48.476;19.102;2023-07-08T04:16:46;98182.31;;;11.09;84.34
79028;BME280;68427;48.476;19.102;2023-07-08T04:19:13;98183.81;;;11.18;83.50
79028;BME280;68427;48.476;19.102;2023-07-08T04:21:41;98178.31;;;11.28;83.73
79028;BME280;68427;48.476;19.102;2023-07-08T04:24:09;98181.84;;;11.35;83.71
79028;BME280;68427;48.476;19.102;2023-07-08T04:26:36;98180.13;;;11.42;83.96
79028;BME280;68427;48.476;19.102;2023-07-08T04:29:01;98172.69;;;11.45;84.22
79028;BME280;68427;48.476;19.102;2023-07-08T04:31:29;98170.53;;;11.49;84.14
79028;BME280;68427;48.476;19.102;2023-07-08T04:33:54;98171.69;;;11.61;83.95
79028;BME280;68427;48.476;19.102;2023-07-08T04:36:20;98173.53;;;11.67;83.67
79028;BME280;68427;48.476;19.102;2023-07-08T04:38:47;98191.44;;;11.79;84.10
79028;BME280;68427;48.476;19.102;2023-07-08T04:41:12;98185.09;;;11.88;83.99
79028;BME280;68427;48.476;19.102;2023-07-08T04:43:38;98187.19;;;11.93;84.36
79028;BME280;68427;48.476;19.102;2023-07-08T04:46:08;98188.22;;;11.98;84.77
79028;BME280;68427;48.476;19.102;2023-07-08T04:48:43;98184.50;;;12.07;84.54
79028;BME280;68427;48.476;19.102;2023-07-08T04:51:09;98192.69;;;12.19;84.21
79028;BME280;68427;48.476;19.102;2023-07-08T04:53:34;98183.25;;;12.25;84.28
79028;BME280;68427;48.476;19.102;2023-07-08T04:56:00;98187.38;;;12.34;84.69
79028;BME280;68427;48.476;19.102;2023-07-08T04:58:26;98189.94;;;12.49;84.12
79028;BME280;68427;48.476;19.102;2023-07-08T05:00:51;98189.03;;;12.63;83.28
79028;BME280;68427;48.476;19.102;2023-07-08T05:03:17;98185.72;;;12.83;83.13
79028;BME280;68427;48.476;19.102;2023-07-08T05:05:44;98188.06;;;12.99;83.06
79028;BME280;68427;48.476;19.102;2023-07-08T05:08:11;98192.38;;;13.13;82.86
79028;BME280;68427;48.476;19.102;2023-07-08T05:10:38;98191.72;;;13.33;81.86
79028;BME280;68427;48.476;19.102;2023-07-08T05:13:04;98190.22;;;13.58;82.02
79028;BME280;68427;48.476;19.102;2023-07-08T05:15:30;98177.75;;;13.87;80.72
79028;BME280;68427;48.476;19.102;2023-07-08T05:17:55;98186.72;;;14.26;78.92
79028;BME280;68427;48.476;19.102;2023-07-08T05:20:21;98185.34;;;14.63;76.81
79028;BME280;68427;48.476;19.102;2023-07-08T05:22:49;98176.41;;;14.98;75.97
79028;BME280;68427;48.476;19.102;2023-07-08T05:25:15;98178.75;;;15.26;75.00
79028;BME280;68427;48.476;19.102;2023-07-08T05:27:41;98180.91;;;15.49;73.67
79028;BME280;68427;48.476;19.102;2023-07-08T05:30:10;98181.84;;;15.74;72.50
79028;BME280;68427;48.476;19.102;2023-07-08T05:32:36;98191.41;;;16.07;71.38
79028;BME280;68427;48.476;19.102;2023-07-08T05:35:02;98186.34;;;16.37;70.59
79028;BME280;68427;48.476;19.102;2023-07-08T05:37:28;98198.56;;;16.63;69.30
79028;BME280;68427;48.476;19.102;2023-07-08T05:39:56;98195.50;;;16.92;68.93
79028;BME280;68427;48.476;19.102;2023-07-08T05:42:22;98194.13;;;17.26;67.75
79028;BME280;68427;48.476;19.102;2023-07-08T05:44:48;98198.84;;;17.61;66.10
79028;BME280;68427;48.476;19.102;2023-07-08T05:47:14;98195.13;;;17.99;63.84
79028;BME280;68427;48.476;19.102;2023-07-08T05:49:41;98193.56;;;18.33;61.69
79028;BME280;68427;48.476;19.102;2023-07-08T05:52:07;98191.94;;;18.74;61.22
79028;BME280;68427;48.476;19.102;2023-07-08T05:54:36;98196.78;;;19.24;58.30
79028;BME280;68427;48.476;19.102;2023-07-08T05:57:05;98189.19;;;19.68;56.54
79028;BME280;68427;48.476;19.102;2023-07-08T05:59:31;98191.25;;;20.23;54.76
79028;BME280;68427;48.476;19.102;2023-07-08T06:01:57;98180.69;;;20.74;54.27
79028;BME280;68427;48.476;19.102;2023-07-08T06:04:22;98192.56;;;21.05;54.15
79028;BME280;68427;48.476;19.102;2023-07-08T06:06:48;98198.63;;;21.62;51.79
79028;BME280;68427;48.476;19.102;2023-07-08T06:09:14;98201.75;;;22.25;51.01
79028;BME280;68427;48.476;19.102;2023-07-08T06:11:40;98203.75;;;22.77;47.92
79028;BME280;68427;48.476;19.102;2023-07-08T06:14:07;98201.69;;;23.26;46.66
79028;BME280;68427;48.476;19.102;2023-07-08T06:16:33;98194.03;;;23.40;45.09
79028;BME280;68427;48.476;19.102;2023-07-08T06:19:00;98201.56;;;23.59;44.53
79028;BME280;68427;48.476;19.102;2023-07-08T06:21:26;98188.56;;;23.73;44.57
79028;BME280;68427;48.476;19.102;2023-07-08T06:23:52;98194.53;;;24.15;43.74
79028;BME280;68427;48.476;19.102;2023-07-08T06:26:17;98195.38;;;24.72;43.23
79028;BME280;68427;48.476;19.102;2023-07-08T06:28:43;98196.41;;;25.02;41.75
79028;BME280;68427;48.476;19.102;2023-07-08T06:31:10;98200.69;;;24.88;41.68
79028;BME280;68427;48.476;19.102;2023-07-08T06:33:36;98183.06;;;24.61;42.59
79028;BME280;68427;48.476;19.102;2023-07-08T06:36:02;98188.13;;;24.88;42.21
79028;BME280;68427;48.476;19.102;2023-07-08T06:38:28;98182.16;;;25.27;41.72
79028;BME280;68427;48.476;19.102;2023-07-08T06:40:53;98190.81;;;25.74;40.91
79028;BME280;68427;48.476;19.102;2023-07-08T06:43:19;98185.91;;;25.96;40.76
79028;BME280;68427;48.476;19.102;2023-07-08T06:45:45;98188.56;;;26.70;39.14
79028;BME280;68427;48.476;19.102;2023-07-08T06:48:12;98183.72;;;26.38;38.09
79028;BME280;68427;48.476;19.102;2023-07-08T06:50:37;98183.47;;;26.68;38.26
79028;BME280;68427;48.476;19.102;2023-07-08T06:53:03;98177.34;;;26.92;37.21
79028;BME280;68427;48.476;19.102;2023-07-08T06:55:29;98175.03;;;26.80;37.76
79028;BME280;68427;48.476;19.102;2023-07-08T06:57:55;98169.25;;;27.45;36.29
79028;BME280;68427;48.476;19.102;2023-07-08T07:00:21;98172.03;;;28.35;34.53
79028;BME280;68427;48.476;19.102;2023-07-08T07:02:47;98166.88;;;28.71;33.61
79028;BME280;68427;48.476;19.102;2023-07-08T07:05:14;98172.53;;;28.56;33.11
79028;BME280;68427;48.476;19.102;2023-07-08T07:07:40;98166.34;;;29.29;32.71
79028;BME280;68427;48.476;19.102;2023-07-08T07:10:06;98165.91;;;28.95;31.41
79028;BME280;68427;48.476;19.102;2023-07-08T07:12:33;98170.88;;;29.84;31.01
79028;BME280;68427;48.476;19.102;2023-07-08T07:14:59;98177.44;;;30.06;29.52
79028;BME280;68427;48.476;19.102;2023-07-08T07:17:25;98173.47;;;30.26;29.86
79028;BME280;68427;48.476;19.102;2023-07-08T07:19:52;98170.91;;;30.43;28.62
79028;BME280;68427;48.476;19.102;2023-07-08T07:22:19;98174.41;;;30.97;28.37
79028;BME280;68427;48.476;19.102;2023-07-08T07:24:45;98162.97;;;31.58;27.63
79028;BME280;68427;48.476;19.102;2023-07-08T07:27:11;98163.63;;;32.42;26.48
79028;BME280;68427;48.476;19.102;2023-07-08T07:29:42;98162.66;;;31.77;26.52
79028;BME280;68427;48.476;19.102;2023-07-08T07:32:09;98159.63;;;31.70;27.17
79028;BME280;68427;48.476;19.102;2023-07-08T07:34:34;98153.59;;;32.34;26.10
79028;BME280;68427;48.476;19.102;2023-07-08T07:37:00;98153.56;;;32.60;25.81
79028;BME280;68427;48.476;19.102;2023-07-08T07:39:27;98158.25;;;33.27;24.96
79028;BME280;68427;48.476;19.102;2023-07-08T07:41:54;98158.53;;;33.05;25.13
79028;BME280;68427;48.476;19.102;2023-07-08T07:44:19;98153.38;;;33.92;23.69
79028;BME280;68427;48.476;19.102;2023-07-08T07:46:45;98154.59;;;34.37;21.64
79028;BME280;68427;48.476;19.102;2023-07-08T07:49:12;98144.94;;;34.60;23.01
79028;BME280;68427;48.476;19.102;2023-07-08T07:51:38;98149.47;;;34.69;22.83
79028;BME280;68427;48.476;19.102;2023-07-08T07:54:04;98142.59;;;34.83;21.56
79028;BME280;68427;48.476;19.102;2023-07-08T07:56:31;98142.63;;;35.20;20.54
79028;BME280;68427;48.476;19.102;2023-07-08T07:58:58;98136.41;;;35.85;21.08
79028;BME280;68427;48.476;19.102;2023-07-08T08:01:24;98140.47;;;36.19;20.54
79028;BME280;68427;48.476;19.102;2023-07-08T08:03:50;98130.72;;;36.94;19.91
79028;BME280;68427;48.476;19.102;2023-07-08T08:06:16;98121.72;;;36.93;19.98
79028;BME280;68427;48.476;19.102;2023-07-08T08:08:43;98126.97;;;37.89;17.86
79028;BME280;68427;48.476;19.102;2023-07-08T08:11:09;98133.16;;;38.67;18.07
79028;BME280;68427;48.476;19.102;2023-07-08T08:13:36;98127.06;;;39.27;17.58
79028;BME280;68427;48.476;19.102;2023-07-08T08:16:02;98123.41;;;39.16;16.92
79028;BME280;68427;48.476;19.102;2023-07-08T08:18:28;98128.56;;;39.21;16.95
79028;BME280;68427;48.476;19.102;2023-07-08T08:20:54;98115.78;;;38.82;15.93
79028;BME280;68427;48.476;19.102;2023-07-08T08:23:20;98121.06;;;37.67;18.16
79028;BME280;68427;48.476;19.102;2023-07-08T08:25:45;98110.56;;;37.34;17.95
79028;BME280;68427;48.476;19.102;2023-07-08T08:28:11;98115.03;;;37.58;17.38
79028;BME280;68427;48.476;19.102;2023-07-08T08:30:39;98116.81;;;37.15;18.05
79028;BME280;68427;48.476;19.102;2023-07-08T08:33:04;98118.06;;;37.72;17.32
79028;BME280;68427;48.476;19.102;2023-07-08T08:35:30;98108.59;;;36.99;18.50
79028;BME280;68427;48.476;19.102;2023-07-08T08:37:56;98114.31;;;37.26;17.88
79028;BME280;68427;48.476;19.102;2023-07-08T08:40:22;98115.38;;;38.57;16.64
79028;BME280;68427;48.476;19.102;2023-07-08T08:42:53;98111.00;;;39.25;16.50
79028;BME280;68427;48.476;19.102;2023-07-08T08:45:23;98104.22;;;38.23;15.66
79028;BME280;68427;48.476;19.102;2023-07-08T08:47:54;98103.44;;;37.84;17.20
79028;BME280;68427;48.476;19.102;2023-07-08T08:50:31;98107.91;;;37.53;18.18
79028;BME280;68427;48.476;19.102;2023-07-08T08:52:58;98103.81;;;38.44;17.07
79028;BME280;68427;48.476;19.102;2023-07-08T08:55:25;98102.50;;;39.61;15.38
79028;BME280;68427;48.476;19.102;2023-07-08T08:57:57;98097.91;;;40.39;15.13
79028;BME280;68427;48.476;19.102;2023-07-08T09:00:30;98109.25;;;41.34;14.51
79028;BME280;68427;48.476;19.102;2023-07-08T09:03:01;98106.13;;;41.39;14.23
79028;BME280;68427;48.476;19.102;2023-07-08T09:05:29;98102.31;;;41.65;13.36
79028;BME280;68427;48.476;19.102;2023-07-08T09:08:03;98089.06;;;41.89;13.76
79028;BME280;68427;48.476;19.102;2023-07-08T09:10:40;98093.47;;;42.33;13.48
79028;BME280;68427;48.476;19.102;2023-07-08T09:13:12;98087.19;;;41.27;13.06
79028;BME280;68427;48.476;19.102;2023-07-08T09:15:41;98085.88;;;41.76;13.39
79028;BME280;68427;48.476;19.102;2023-07-08T09:18:17;98084.03;;;40.70;14.97
79028;BME280;68427;48.476;19.102;2023-07-08T09:20:44;98088.16;;;39.44;16.57
79028;BME280;68427;48.476;19.102;2023-07-08T09:23:17;98082.34;;;40.58;16.10
79028;BME280;68427;48.476;19.102;2023-07-08T09:25:50;98084.25;;;40.50;14.58
79028;BME280;68427;48.476;19.102;2023-07-08T09:28:18;98088.34;;;39.89;16.01
79028;BME280;68427;48.476;19.102;2023-07-08T09:30:46;98091.50;;;39.91;15.87
79028;BME280;68427;48.476;19.102;2023-07-08T09:33:15;98080.53;;;39.91;14.30
79028;BME280;68427;48.476;19.102;2023-07-08T09:35:42;98081.03;;;38.17;15.71
79028;BME280;68427;48.476;19.102;2023-07-08T09:38:17;98086.81;;;40.29;15.35
79028;BME280;68427;48.476;19.102;2023-07-08T09:40:47;98085.44;;;40.12;16.18
79028;BME280;68427;48.476;19.102;2023-07-08T09:43:23;98080.50;;;41.28;14.45
79028;BME280;68427;48.476;19.102;2023-07-08T09:45:49;98083.53;;;40.57;14.92
79028;BME280;68427;48.476;19.102;2023-07-08T09:48:19;98077.91;;;40.43;15.02
79028;BME280;68427;48.476;19.102;2023-07-08T09:50:48;98080.78;;;39.22;15.80
79028;BME280;68427;48.476;19.102;2023-07-08T09:53:14;98081.31;;;37.70;17.71
79028;BME280;68427;48.476;19.102;2023-07-08T09:55:40;98086.13;;;36.42;19.20
79028;BME280;68427;48.476;19.102;2023-07-08T09:58:10;98081.44;;;34.69;21.43
79028;BME280;68427;48.476;19.102;2023-07-08T10:00:39;98085.22;;;34.43;22.51
79028;BME280;68427;48.476;19.102;2023-07-08T10:03:11;98080.09;;;34.17;21.95
79028;BME280;68427;48.476;19.102;2023-07-08T10:05:43;98083.41;;;34.35;21.84
79028;BME280;68427;48.476;19.102;2023-07-08T10:08:14;98068.31;;;36.96;18.69
79028;BME280;68427;48.476;19.102;2023-07-08T10:10:40;98075.91;;;38.58;16.07
79028;BME280;68427;48.476;19.102;2023-07-08T10:13:17;98067.84;;;39.79;14.61
79028;BME280;68427;48.476;19.102;2023-07-08T10:15:47;98065.63;;;39.58;15.93
79028;BME280;68427;48.476;19.102;2023-07-08T10:18:16;98056.97;;;39.56;15.43
79028;BME280;68427;48.476;19.102;2023-07-08T10:20:57;98054.91;;;38.43;15.34
79028;BME280;68427;48.476;19.102;2023-07-08T10:23:39;98055.31;;;39.48;15.34
79028;BME280;68427;48.476;19.102;2023-07-08T10:26:14;98048.88;;;37.72;17.69
79028;BME280;68427;48.476;19.102;2023-07-08T10:28:46;98057.88;;;36.82;19.42
79028;BME280;68427;48.476;19.102;2023-07-08T10:31:21;98057.94;;;35.25;20.19
79028;BME280;68427;48.476;19.102;2023-07-08T10:34:09;98051.69;;;34.39;20.90
79028;BME280;68427;48.476;19.102;2023-07-08T10:36:48;98054.72;;;33.50;22.32
79028;BME280;68427;48.476;19.102;2023-07-08T10:39:43;98055.13;;;33.19;23.53
79028;BME280;68427;48.476;19.102;2023-07-08T10:42:21;98053.22;;;32.42;25.02
79028;BME280;68427;48.476;19.102;2023-07-08T10:45:01;98048.28;;;32.53;24.74
79028;BME280;68427;48.476;19.102;2023-07-08T10:47:42;98050.66;;;33.98;22.59
79028;BME280;68427;48.476;19.102;2023-07-08T10:50:24;98051.88;;;35.44;20.91
79028;BME280;68427;48.476;19.102;2023-07-08T10:52:59;98043.81;;;35.76;19.79
79028;BME280;68427;48.476;19.102;2023-07-08T10:55:39;98042.66;;;36.65;19.53
79028;BME280;68427;48.476;19.102;2023-07-08T10:58:36;98035.81;;;36.11;19.36
79028;BME280;68427;48.476;19.102;2023-07-08T11:01:06;98028.84;;;36.93;17.54
79028;BME280;68427;48.476;19.102;2023-07-08T11:04:21;98032.66;;;34.88;20.20
79028;BME280;68427;48.476;19.102;2023-07-08T11:06:54;98026.06;;;35.54;19.41
79028;BME280;68427;48.476;19.102;2023-07-08T11:09:26;98026.31;;;34.84;19.19
79028;BME280;68427;48.476;19.102;2023-07-08T11:11:58;98024.66;;;35.73;21.62
79028;BME280;68427;48.476;19.102;2023-07-08T11:14:29;98011.75;;;36.29;17.89
79028;BME280;68427;48.476;19.102;2023-07-08T11:17:07;98009.00;;;36.61;18.52
79028;BME280;68427;48.476;19.102;2023-07-08T11:19:38;98013.13;;;36.55;17.59
79028;BME280;68427;48.476;19.102;2023-07-08T11:22:10;98006.63;;;36.28;18.89
79028;BME280;68427;48.476;19.102;2023-07-08T11:24:40;98012.97;;;36.80;17.31
79028;BME280;68427;48.476;19.102;2023-07-08T11:27:13;98015.06;;;36.39;18.43
79028;BME280;68427;48.476;19.102;2023-07-08T11:29:46;98006.13;;;35.10;19.37
79028;BME280;68427;48.476;19.102;2023-07-08T11:32:16;98007.16;;;36.33;19.39
79028;BME280;68427;48.476;19.102;2023-07-08T11:34:44;98000.53;;;37.02;17.24
79028;BME280;68427;48.476;19.102;2023-07-08T11:37:12;97999.44;;;37.41;16.53
79028;BME280;68427;48.476;19.102;2023-07-08T11:39:42;97988.13;;;36.53;17.82
79028;BME280;68427;48.476;19.102;2023-07-08T11:42:19;97994.72;;;36.04;17.43
79028;BME280;68427;48.476;19.102;2023-07-08T11:44:48;97983.75;;;35.73;17.55
79028;BME280;68427;48.476;19.102;2023-07-08T11:47:19;97984.75;;;35.80;19.11
79028;BME280;68427;48.476;19.102;2023-07-08T11:49:48;97987.00;;;35.62;18.69
79028;BME280;68427;48.476;19.102;2023-07-08T11:52:17;97980.13;;;35.97;18.50
79028;BME280;68427;48.476;19.102;2023-07-08T11:54:47;97981.53;;;36.38;18.97
79028;BME280;68427;48.476;19.102;2023-07-08T11:57:17;97983.38;;;36.34;18.07
79028;BME280;68427;48.476;19.102;2023-07-08T11:59:43;97978.72;;;36.34;18.52
79028;BME280;68427;48.476;19.102;2023-07-08T12:02:13;97977.41;;;36.28;17.80
79028;BME280;68427;48.476;19.102;2023-07-08T12:04:55;97975.81;;;36.11;18.12
79028;BME280;68427;48.476;19.102;2023-07-08T12:07:30;97977.66;;;36.07;18.50
79028;BME280;68427;48.476;19.102;2023-07-08T12:10:00;97979.56;;;35.91;17.55
79028;BME280;68427;48.476;19.102;2023-07-08T12:12:31;97964.34;;;35.74;17.81
79028;BME280;68427;48.476;19.102;2023-07-08T12:15:09;97969.47;;;34.95;17.54
79028;BME280;68427;48.476;19.102;2023-07-08T12:17:37;97960.44;;;34.54;18.19
79028;BME280;68427;48.476;19.102;2023-07-08T12:20:07;97958.41;;;34.26;18.72
79028;BME280;68427;48.476;19.102;2023-07-08T12:22:41;97964.53;;;33.02;20.27
79028;BME280;68427;48.476;19.102;2023-07-08T12:25:13;97957.06;;;32.90;20.81
79028;BME280;68427;48.476;19.102;2023-07-08T12:27:38;97950.72;;;33.49;20.95
79028;BME280;68427;48.476;19.102;2023-07-08T12:30:05;97960.34;;;33.92;21.78
79028;BME280;68427;48.476;19.102;2023-07-08T12:32:32;97950.88;;;33.98;19.71
79028;BME280;68427;48.476;19.102;2023-07-08T12:34:58;97954.69;;;33.52;19.54
79028;BME280;68427;48.476;19.102;2023-07-08T12:37:24;97953.59;;;33.65;19.47
79028;BME280;68427;48.476;19.102;2023-07-08T12:39:56;97946.59;;;32.80;19.22
79028;BME280;68427;48.476;19.102;2023-07-08T12:42:26;97953.47;;;33.07;19.84
79028;BME280;68427;48.476;19.102;2023-07-08T12:44:52;97944.81;;;33.47;19.04
79028;BME280;68427;48.476;19.102;2023-07-08T12:47:19;97947.53;;;32.84;19.24
79028;BME280;68427;48.476;19.102;2023-07-08T12:49:45;97950.91;;;33.65;19.09
79028;BME280;68427;48.476;19.102;2023-07-08T12:52:20;97950.34;;;33.72;17.57
79028;BME280;68427;48.476;19.102;2023-07-08T12:54:46;97949.09;;;33.36;19.02
79028;BME280;68427;48.476;19.102;2023-07-08T12:57:12;97952.03;;;33.43;19.77